Newtown, Indiana
Current Conditions -  °F | °C
As of 7:54 AM on Wednesday 22 Oct 2014 (Local Time) from KLAF Reporting Station
Clear Clear  
Wind Chill:   Ceiling: Unl
Heat Index:   Visibility: 7mi
Dew Point:   Wind: 3mph
Humidity: 100%   Direction: 340°NNW
Pressure: 30.31"   Gusts: NA
Location:  40.2°N, 87.15°W
Report Text: KLAF 221154Z 34003KT 7SM CLR 01/01 A3031 RMK AO2 SLP268 T00110011 10033 20006 51014
Loading
Personal Weather Stations






























Interactive Weather Map
Tropical Storm Tracking
New forecast layout! Learn more

10-Day Weather Forecast

Advertisements
Track Severe Weather on mobile